createdAt,value
2018-01-25T00:00:01.612Z,1.20
2018-01-25T00:02:29.047Z,1.30
2018-01-25T00:04:56.496Z,1.10
2018-01-25T00:07:23.948Z,1.23
2018-01-25T00:09:51.436Z,1.10
2018-01-25T00:12:19.608Z,1.17
2018-01-25T00:14:47.041Z,1.53
2018-01-25T00:17:14.489Z,1.27
2018-01-25T00:19:42.706Z,1.00
2018-01-25T00:22:10.141Z,1.10
2018-01-25T00:24:37.579Z,1.17
2018-01-25T00:27:05.028Z,1.20
2018-01-25T00:29:33.270Z,1.30
2018-01-25T00:32:00.718Z,1.10
2018-01-25T00:34:28.191Z,1.67
2018-01-25T00:36:55.614Z,1.43
2018-01-25T00:39:23.130Z,0.97
2018-01-25T00:41:51.324Z,1.20
2018-01-25T00:44:18.779Z,1.23
2018-01-25T00:46:46.213Z,1.23
2018-01-25T00:49:14.436Z,1.00
2018-01-25T00:51:41.869Z,1.13
2018-01-25T00:54:09.326Z,1.27
2018-01-25T00:56:36.771Z,1.40
2018-01-25T00:59:04.970Z,1.20
2018-01-25T01:01:32.423Z,1.20
2018-01-25T01:03:59.866Z,1.00
2018-01-25T01:06:28.085Z,1.13
2018-01-25T01:08:55.517Z,1.03
2018-01-25T01:11:22.974Z,0.80
2018-01-25T01:13:50.418Z,0.90
2018-01-25T01:16:17.856Z,0.93
2018-01-25T01:18:46.060Z,1.10
2018-01-25T01:21:13.514Z,1.30
2018-01-25T01:23:40.958Z,1.37
2018-01-25T01:26:08.411Z,1.03
2018-01-25T01:28:36.610Z,1.37
2018-01-25T01:31:04.072Z,1.20
2018-01-25T01:33:31.518Z,0.87
2018-01-25T01:35:58.987Z,0.97
2018-01-25T01:38:26.438Z,1.30
2018-01-25T01:40:53.894Z,1.20
2018-01-25T01:43:21.326Z,0.70
2018-01-25T01:45:49.542Z,0.97
2018-01-25T01:48:16.997Z,1.70
2018-01-25T01:50:44.448Z,0.80
2018-01-25T01:53:11.887Z,1.20
2018-01-25T01:55:39.337Z,0.90
2018-01-25T01:58:07.546Z,1.20
2018-01-25T02:00:35.003Z,1.40
2018-01-25T02:03:02.452Z,1.17
2018-01-25T02:05:29.915Z,0.90
2018-01-25T02:07:57.358Z,1.40
2018-01-25T02:10:24.823Z,1.00
2018-01-25T02:12:52.248Z,0.80
2018-01-25T02:15:20.446Z,1.20
2018-01-25T02:17:47.890Z,1.17
2018-01-25T02:20:15.324Z,0.90
2018-01-25T02:22:42.782Z,1.00
2018-01-25T02:25:10.223Z,1.07
2018-01-25T02:27:37.666Z,0.70
2018-01-25T02:30:05.160Z,1.10
2018-01-25T02:32:33.354Z,1.00
2018-01-25T02:35:00.785Z,1.00
2018-01-25T02:37:28.237Z,1.00
2018-01-25T02:39:55.677Z,1.00
2018-01-25T02:42:23.141Z,1.00
2018-01-25T02:44:50.586Z,0.80
2018-01-25T02:47:18.045Z,0.90
2018-01-25T02:49:45.490Z,1.10
2018-01-25T02:52:12.945Z,0.93
2018-01-25T02:54:40.382Z,0.93
2018-01-25T02:57:07.833Z,0.80
2018-01-25T02:59:35.260Z,0.83
2018-01-25T03:02:03.480Z,0.83
2018-01-25T03:04:30.926Z,1.00
2018-01-25T03:06:58.396Z,0.87
2018-01-25T03:09:25.834Z,0.90
2018-01-25T03:11:53.442Z,1.10
2018-01-25T03:14:20.898Z,0.90
2018-01-25T03:16:48.355Z,0.87
2018-01-25T03:19:15.794Z,1.07
2018-01-25T03:21:43.246Z,1.20
2018-01-25T03:24:10.699Z,1.00
2018-01-25T03:26:38.152Z,1.43
2018-01-25T03:29:05.576Z,1.37
2018-01-25T03:31:33.790Z,1.50
2018-01-25T03:34:01.227Z,1.87
2018-01-25T03:36:28.682Z,1.40
2018-01-25T03:38:56.118Z,1.10
2018-01-25T03:41:24.350Z,1.03
2018-01-25T03:43:51.791Z,1.50
2018-01-25T03:46:19.238Z,1.63
2018-01-25T03:48:46.695Z,1.63
2018-01-25T03:51:14.148Z,1.40
2018-01-25T03:53:41.606Z,2.20
2018-01-25T03:56:09.040Z,2.03
2018-01-25T03:58:37.279Z,1.67
2018-01-25T04:01:04.717Z,1.30
2018-01-25T04:03:32.179Z,1.50
2018-01-25T04:05:59.612Z,1.77
2018-01-25T04:08:27.057Z,1.50
2018-01-25T04:10:54.499Z,1.20
2018-01-25T04:13:22.718Z,1.40
2018-01-25T04:15:50.166Z,1.53
2018-01-25T04:18:17.615Z,1.40
2018-01-25T04:20:45.046Z,1.50
2018-01-25T04:23:13.272Z,0.90
2018-01-25T04:25:40.711Z,1.03
2018-01-25T04:28:08.170Z,1.30
2018-01-25T04:30:35.610Z,1.00
2018-01-25T04:33:03.054Z,0.93
2018-01-25T04:35:31.249Z,1.20
2018-01-25T04:37:58.702Z,1.20
2018-01-25T04:40:26.143Z,1.33
2018-01-25T04:42:54.358Z,1.30
2018-01-25T04:45:21.804Z,1.70
2018-01-25T04:47:49.265Z,1.40
2018-01-25T04:50:16.701Z,1.50
2018-01-25T04:52:44.149Z,1.90
2018-01-25T04:55:12.335Z,2.10
2018-01-25T04:57:39.808Z,1.70
2018-01-25T05:00:07.245Z,1.43
2018-01-25T05:02:34.685Z,2.07
2018-01-25T05:05:02.891Z,1.40
2018-01-25T05:07:30.353Z,1.50
2018-01-25T05:09:57.790Z,1.70
2018-01-25T05:12:25.230Z,1.80
2018-01-25T05:14:53.451Z,1.90
2018-01-25T05:17:26.512Z,1.60
2018-01-25T05:19:53.958Z,1.70
2018-01-25T05:22:22.171Z,1.67
2018-01-25T05:24:49.610Z,1.80
2018-01-25T05:27:17.077Z,2.40
2018-01-25T05:29:45.266Z,2.63
2018-01-25T05:32:12.711Z,2.30
2018-01-25T05:34:40.167Z,2.50
2018-01-25T05:37:07.617Z,2.00
2018-01-25T05:39:35.063Z,2.67
2018-01-25T05:42:02.504Z,2.40
2018-01-25T05:44:30.719Z,2.00
2018-01-25T05:46:58.171Z,2.00
2018-01-25T05:49:25.620Z,2.30
2018-01-25T05:51:53.059Z,2.17
2018-01-25T05:54:21.285Z,2.60
2018-01-25T05:56:48.726Z,2.47
2018-01-25T05:59:16.175Z,3.23
2018-01-25T06:01:43.615Z,2.90
2018-01-25T06:04:11.055Z,3.10
2018-01-25T06:06:39.265Z,3.73
2018-01-25T06:09:06.697Z,4.17
2018-01-25T06:11:34.129Z,3.50
2018-01-25T06:14:01.579Z,2.70
2018-01-25T06:16:29.015Z,2.87
2018-01-25T06:18:57.231Z,4.00
2018-01-25T06:21:25.432Z,2.83
2018-01-25T06:23:52.885Z,3.40
2018-01-25T06:26:20.318Z,4.30
2018-01-25T06:28:48.543Z,4.30
2018-01-25T06:31:15.974Z,4.50
2018-01-25T06:33:43.427Z,3.87
2018-01-25T06:36:10.888Z,4.37
2018-01-25T06:38:38.360Z,3.20
2018-01-25T06:41:05.780Z,5.33
2018-01-25T06:43:33.990Z,3.70
2018-01-25T06:46:01.460Z,4.90
2018-01-25T06:48:29.612Z,4.67
2018-01-25T06:50:57.025Z,4.90
2018-01-25T06:53:24.458Z,4.73
2018-01-25T06:55:51.907Z,3.97
2018-01-25T06:58:19.363Z,4.83
2018-01-25T07:00:46.786Z,4.23
2018-01-25T07:03:14.222Z,5.27
2018-01-25T07:05:42.500Z,4.23
2018-01-25T07:08:10.717Z,6.17
2018-01-25T07:10:38.158Z,5.17
2018-01-25T07:13:05.593Z,5.60
2018-01-25T07:15:33.808Z,5.13
2018-01-25T07:18:01.246Z,5.90
2018-01-25T07:20:28.700Z,4.90
2018-01-25T07:22:56.891Z,5.07
2018-01-25T07:25:24.330Z,5.83
2018-01-25T07:27:51.786Z,5.33
2018-01-25T07:30:19.199Z,5.50
2018-01-25T07:32:46.646Z,5.87
2018-01-25T07:35:14.098Z,5.80
2018-01-25T07:37:41.544Z,5.73
2018-01-25T07:40:08.989Z,6.20
2018-01-25T07:42:36.426Z,5.83
2018-01-25T07:45:04.630Z,5.63
2018-01-25T07:47:32.066Z,6.63
2018-01-25T07:49:59.568Z,7.23
2018-01-25T07:52:26.998Z,5.77
2018-01-25T07:54:54.442Z,4.90
2018-01-25T07:57:27.465Z,5.10
2018-01-25T07:59:54.906Z,4.40
2018-01-25T08:02:28.074Z,4.20
2018-01-25T08:04:55.509Z,5.30
2018-01-25T08:07:23.699Z,4.40
2018-01-25T08:09:51.142Z,5.90
2018-01-25T08:12:19.350Z,5.70
2018-01-25T08:14:46.783Z,6.20
2018-01-25T08:17:14.234Z,4.80
2018-01-25T08:19:41.653Z,5.40
2018-01-25T08:22:09.102Z,5.17
2018-01-25T08:24:36.542Z,5.43
2018-01-25T08:27:03.997Z,6.53
2018-01-25T08:29:31.439Z,5.53
2018-01-25T08:31:58.932Z,5.27
2018-01-25T08:34:26.348Z,4.63
2018-01-25T08:36:53.791Z,5.20
2018-01-25T08:39:22.022Z,4.83
2018-01-25T08:41:49.454Z,4.53
2018-01-25T08:44:16.873Z,4.87
2018-01-25T08:46:45.064Z,5.40
2018-01-25T08:49:12.493Z,6.73
2018-01-25T08:51:39.938Z,6.37
2018-01-25T08:54:07.379Z,7.30
2018-01-25T08:56:34.829Z,6.30
2018-01-25T08:59:02.275Z,6.83
2018-01-25T09:01:29.721Z,5.20
2018-01-25T09:03:57.165Z,5.80
2018-01-25T09:06:24.609Z,5.60
2018-01-25T09:08:52.820Z,5.60
2018-01-25T09:11:20.273Z,6.53
2018-01-25T09:13:47.721Z,5.13
2018-01-25T09:16:15.166Z,3.90
2018-01-25T09:18:42.598Z,3.20
2018-01-25T09:21:10.824Z,3.43
2018-01-25T09:23:38.244Z,3.53
2018-01-25T09:26:06.466Z,2.70
2018-01-25T09:28:33.908Z,1.80
2018-01-25T09:31:01.354Z,2.00
2018-01-25T09:33:28.781Z,1.50
2018-01-25T09:35:57.033Z,1.87
2018-01-25T09:38:24.413Z,1.87
2018-01-25T09:40:52.632Z,2.13
2018-01-25T09:43:20.091Z,2.60
2018-01-25T09:45:47.510Z,1.93
2018-01-25T09:48:15.721Z,1.70
2018-01-25T09:50:43.160Z,1.70
2018-01-25T09:53:10.611Z,1.80
2018-01-25T09:55:38.047Z,1.57
2018-01-25T09:58:06.254Z,2.20
2018-01-25T10:00:33.700Z,1.60
2018-01-25T10:03:01.184Z,1.63
2018-01-25T10:05:28.621Z,0.90
2018-01-25T10:07:56.070Z,1.40
2018-01-25T10:10:24.266Z,1.20
2018-01-25T10:12:51.707Z,1.60
2018-01-25T10:15:19.884Z,1.03
2018-01-25T10:17:48.936Z,1.80
2018-01-25T10:20:16.360Z,1.40
2018-01-25T10:22:43.814Z,1.40
2018-01-25T10:25:11.261Z,2.37
2018-01-25T10:27:38.697Z,1.60
2018-01-25T10:30:06.130Z,1.80
2018-01-25T10:32:33.571Z,1.47
2018-01-25T10:35:01.008Z,2.87
2018-01-25T10:37:28.459Z,3.80
2018-01-25T10:39:55.906Z,2.77
2018-01-25T10:42:23.354Z,3.70
2018-01-25T10:44:50.789Z,3.43
2018-01-25T10:47:19.004Z,4.10
2018-01-25T10:49:46.456Z,4.13
2018-01-25T10:52:13.917Z,4.10
2018-01-25T10:54:41.358Z,6.57
2018-01-25T10:57:08.811Z,3.57
2018-01-25T10:59:36.245Z,3.70
2018-01-25T11:02:10.145Z,7.00
2018-01-25T11:04:38.359Z,3.47
2018-01-25T11:07:05.811Z,3.03
2018-01-25T11:09:33.238Z,1.93
2018-01-25T11:12:01.464Z,1.80
2018-01-25T11:14:28.892Z,2.07
2018-01-25T11:16:56.316Z,1.63
2018-01-25T11:19:23.756Z,1.30
2018-01-25T11:21:51.185Z,1.43
2018-01-25T11:24:18.644Z,1.60
2018-01-25T11:26:46.083Z,1.67
2018-01-25T11:29:13.531Z,1.43
2018-01-25T11:31:40.983Z,1.30
2018-01-25T11:34:08.405Z,1.87
2018-01-25T11:36:35.862Z,2.00
2018-01-25T11:39:03.307Z,1.47
2018-01-25T11:41:30.742Z,1.70
2018-01-25T11:43:58.193Z,1.67
2018-01-25T11:46:25.631Z,1.57
2018-01-25T11:48:53.168Z,1.70
2018-01-25T11:51:20.716Z,1.63
2018-01-25T11:53:48.203Z,1.60
2018-01-25T11:56:16.409Z,1.47
2018-01-25T11:58:43.864Z,1.40
2018-01-25T12:01:11.304Z,1.43
2018-01-25T12:03:38.737Z,1.40
2018-01-25T12:06:07.008Z,1.33
2018-01-25T12:08:35.225Z,1.43
2018-01-25T12:11:02.663Z,1.50
2018-01-25T12:13:30.105Z,1.20
2018-01-25T12:15:58.313Z,1.70
2018-01-25T12:18:25.757Z,1.00
2018-01-25T12:20:53.190Z,1.90
2018-01-25T12:23:21.410Z,1.10
2018-01-25T12:25:48.832Z,1.30
2018-01-25T12:28:16.275Z,1.37
2018-01-25T12:30:44.485Z,1.10
2018-01-25T12:33:11.945Z,1.23
2018-01-25T12:35:39.372Z,1.10
2018-01-25T12:38:07.573Z,0.90
2018-01-25T12:40:35.006Z,1.67
2018-01-25T12:43:03.200Z,1.50
2018-01-25T12:45:30.657Z,1.13
2018-01-25T12:47:58.089Z,1.77
2018-01-25T12:50:26.306Z,2.50
2018-01-25T12:52:53.746Z,1.60
2018-01-25T12:55:21.187Z,1.00
2018-01-25T12:57:49.403Z,2.60
2018-01-25T13:00:16.836Z,2.60
2018-01-25T13:02:44.299Z,3.17
2018-01-25T13:05:11.743Z,2.60
2018-01-25T13:07:39.179Z,1.87
2018-01-25T13:10:07.397Z,1.53
2018-01-25T13:12:34.821Z,1.37
2018-01-25T13:15:02.261Z,1.10
2018-01-25T13:17:29.705Z,1.60
2018-01-25T13:19:57.152Z,1.20
2018-01-25T13:22:24.622Z,1.20
2018-01-25T13:24:52.075Z,1.37
2018-01-25T13:27:19.510Z,1.37
2018-01-25T13:29:46.952Z,1.50
2018-01-25T13:32:19.447Z,1.23
2018-01-25T13:34:46.887Z,1.37
2018-01-25T13:37:14.321Z,1.30
2018-01-25T13:39:41.766Z,1.40
2018-01-25T13:42:09.974Z,0.93
2018-01-25T13:44:37.432Z,1.20
2018-01-25T13:47:04.867Z,1.60
2018-01-25T13:49:32.306Z,1.80
2018-01-25T13:52:00.512Z,1.57
2018-01-25T13:54:27.964Z,1.50
2018-01-25T13:56:55.408Z,1.63
2018-01-25T13:59:22.862Z,1.17
2018-01-25T14:01:51.054Z,0.90
2018-01-25T14:04:18.503Z,1.23
2018-01-25T14:06:45.932Z,1.20
2018-01-25T14:09:13.372Z,1.27
2018-01-25T14:11:40.814Z,1.73
2018-01-25T14:14:08.262Z,1.53
2018-01-25T14:16:35.699Z,1.10
2018-01-25T14:19:03.130Z,1.00
2018-01-25T14:21:31.345Z,0.90
2018-01-25T14:23:58.770Z,1.27
2018-01-25T14:26:26.224Z,1.27
2018-01-25T14:28:54.424Z,0.90
2018-01-25T14:31:21.865Z,1.70
2018-01-25T14:33:49.347Z,1.70
2018-01-25T14:36:17.523Z,1.70
2018-01-25T14:38:44.966Z,1.60
2018-01-25T14:41:12.419Z,1.53
2018-01-25T14:43:39.856Z,1.50
2018-01-25T14:46:08.076Z,1.30
2018-01-25T14:48:35.517Z,1.33
2018-01-25T14:51:02.966Z,2.10
2018-01-25T14:53:30.406Z,1.30
2018-01-25T14:55:58.623Z,1.50
2018-01-25T14:58:26.058Z,2.63
2018-01-25T15:00:53.508Z,2.20
2018-01-25T15:03:20.951Z,1.90
2018-01-25T15:05:49.157Z,2.20
2018-01-25T15:08:16.589Z,1.70
2018-01-25T15:10:44.024Z,2.37
2018-01-25T15:13:12.233Z,2.77
2018-01-25T15:15:39.682Z,2.40
2018-01-25T15:18:07.309Z,2.60
2018-01-25T15:20:34.757Z,1.80
2018-01-25T15:23:02.199Z,1.90
2018-01-25T15:25:35.337Z,1.77
2018-01-25T15:28:03.527Z,2.13
2018-01-25T15:30:30.982Z,2.03
2018-01-25T15:32:58.418Z,2.20
2018-01-25T15:35:26.621Z,2.27
2018-01-25T15:37:54.055Z,1.80
2018-01-25T15:40:22.263Z,2.60
2018-01-25T15:42:49.712Z,2.73
2018-01-25T15:45:17.146Z,2.20
2018-01-25T15:47:45.355Z,2.10
2018-01-25T15:50:12.790Z,2.50
2018-01-25T15:52:40.233Z,3.50
2018-01-25T15:55:08.441Z,2.37
2018-01-25T15:57:35.902Z,2.20
2018-01-25T16:00:03.323Z,1.83
2018-01-25T16:02:30.764Z,2.00
2018-01-25T16:04:58.203Z,1.90
2018-01-25T16:07:25.646Z,1.73
2018-01-25T16:09:53.087Z,2.30
2018-01-25T16:12:20.526Z,3.03
2018-01-25T16:14:47.965Z,2.20
2018-01-25T16:17:15.403Z,1.77
2018-01-25T16:19:42.843Z,2.70
2018-01-25T16:22:10.294Z,1.77
2018-01-25T16:24:37.735Z,2.33
2018-01-25T16:27:05.183Z,1.80
2018-01-25T16:29:32.612Z,3.07
2018-01-25T16:32:00.062Z,2.50
2018-01-25T16:34:28.266Z,3.10
2018-01-25T16:36:55.713Z,3.50
2018-01-25T16:39:23.146Z,3.23
2018-01-25T16:41:51.362Z,3.30
2018-01-25T16:44:18.793Z,3.50
2018-01-25T16:46:46.247Z,3.67
2018-01-25T16:49:14.452Z,3.47
2018-01-25T16:51:41.903Z,3.70
2018-01-25T16:54:09.339Z,4.40
2018-01-25T16:56:36.789Z,4.30
2018-01-25T16:59:04.994Z,4.20
2018-01-25T17:01:32.443Z,4.50
2018-01-25T17:04:00.659Z,4.80
2018-01-25T17:06:28.086Z,5.30
2018-01-25T17:08:55.543Z,5.00
2018-01-25T17:11:22.983Z,4.90
2018-01-25T17:13:50.411Z,4.40
2018-01-25T17:16:18.664Z,4.90
2018-01-25T17:18:46.870Z,4.03
2018-01-25T17:21:15.084Z,4.33
2018-01-25T17:23:42.525Z,4.40
2018-01-25T17:26:09.958Z,5.37
2018-01-25T17:28:38.183Z,5.57
2018-01-25T17:31:05.627Z,5.77
2018-01-25T17:33:33.083Z,6.70
2018-01-25T17:36:00.516Z,6.40
2018-01-25T17:38:27.962Z,5.70
2018-01-25T17:40:56.157Z,7.17
2018-01-25T17:43:23.599Z,6.50
2018-01-25T17:45:51.800Z,6.60
2018-01-25T17:48:19.308Z,6.03
2018-01-25T17:50:46.691Z,5.67
2018-01-25T17:53:14.138Z,6.10
2018-01-25T17:55:41.582Z,5.73
2018-01-25T17:58:09.026Z,5.90
2018-01-25T18:00:36.467Z,6.50
2018-01-25T18:03:03.917Z,6.60
2018-01-25T18:05:31.352Z,6.73
2018-01-25T18:07:58.816Z,6.37
2018-01-25T18:10:26.247Z,5.73
2018-01-25T18:12:53.679Z,5.63
2018-01-25T18:15:21.122Z,5.63
2018-01-25T18:17:48.557Z,5.97
2018-01-25T18:20:16.770Z,5.13
2018-01-25T18:22:44.221Z,5.40
2018-01-25T18:25:11.654Z,5.00
2018-01-25T18:27:39.106Z,6.30
2018-01-25T18:30:06.536Z,6.27
2018-01-25T18:32:33.965Z,8.13
2018-01-25T18:35:02.183Z,6.57
2018-01-25T18:37:29.632Z,7.00
2018-01-25T18:39:57.090Z,7.40
2018-01-25T18:42:24.526Z,7.10
2018-01-25T18:44:51.976Z,8.37
2018-01-25T18:47:20.179Z,8.50
2018-01-25T18:49:47.622Z,7.60
2018-01-25T18:52:15.098Z,7.60
2018-01-25T18:54:42.545Z,10.93
2018-01-25T18:57:09.986Z,6.73
2018-01-25T18:59:37.498Z,8.50
2018-01-25T19:02:04.937Z,8.97
2018-01-25T19:04:32.385Z,9.80
2018-01-25T19:06:59.823Z,9.17
2018-01-25T19:09:27.273Z,7.97
2018-01-25T19:11:54.700Z,8.43
2018-01-25T19:14:22.150Z,7.70
2018-01-25T19:16:49.584Z,8.77
2018-01-25T19:19:17.043Z,9.20
2018-01-25T19:21:45.475Z,8.97
2018-01-25T19:24:13.700Z,8.20
2018-01-25T19:26:41.144Z,7.40
2018-01-25T19:29:08.592Z,7.07
2018-01-25T19:31:36.074Z,6.60
2018-01-25T19:34:03.514Z,6.90
2018-01-25T19:36:30.959Z,5.47
2018-01-25T19:38:58.392Z,3.40
2018-01-25T19:41:25.828Z,2.97
2018-01-25T19:43:53.290Z,2.83
2018-01-25T19:46:20.725Z,1.30
2018-01-25T19:48:48.166Z,1.47
2018-01-25T19:51:15.607Z,1.43
2018-01-25T19:53:43.055Z,1.70
2018-01-25T19:56:10.686Z,2.03
2018-01-25T19:58:38.886Z,0.90
2018-01-25T20:01:06.341Z,1.97
2018-01-25T20:03:33.774Z,1.60
2018-01-25T20:06:01.982Z,3.23
2018-01-25T20:08:29.430Z,2.67
2018-01-25T20:10:56.861Z,1.90
2018-01-25T20:13:24.293Z,1.93
2018-01-25T20:15:51.729Z,2.40
2018-01-25T20:18:19.167Z,3.73
2018-01-25T20:20:46.622Z,2.80
2018-01-25T20:23:14.062Z,3.30
2018-01-25T20:25:42.270Z,3.53
2018-01-25T20:28:09.725Z,4.50
2018-01-25T20:30:37.166Z,5.30
2018-01-25T20:33:04.601Z,4.73
2018-01-25T20:35:32.808Z,4.50
2018-01-25T20:38:00.255Z,5.30
2018-01-25T20:40:27.704Z,5.10
2018-01-25T20:42:55.143Z,4.80
2018-01-25T20:45:23.354Z,4.80
2018-01-25T20:47:50.766Z,6.73
2018-01-25T20:50:18.988Z,8.80
2018-01-25T20:52:46.433Z,12.10
2018-01-25T20:55:13.885Z,11.30
2018-01-25T20:57:41.320Z,12.10
2018-01-25T21:00:09.539Z,14.00
2018-01-25T21:02:36.992Z,19.00
2018-01-25T21:05:04.492Z,13.60
2018-01-25T21:07:31.929Z,6.80
2018-01-25T21:09:59.390Z,7.77
2018-01-25T21:12:26.829Z,6.20
2018-01-25T21:14:54.264Z,6.47
2018-01-25T21:17:21.880Z,7.97
2018-01-25T21:19:49.311Z,6.30
2018-01-25T21:22:17.520Z,6.23
2018-01-25T21:24:44.965Z,7.03
2018-01-25T21:27:12.405Z,5.47
2018-01-25T21:29:39.846Z,6.00
2018-01-25T21:32:07.284Z,6.70
2018-01-25T21:34:34.905Z,9.07
2018-01-25T21:37:02.500Z,6.30
2018-01-25T21:39:30.841Z,5.60
2018-01-25T21:41:58.486Z,5.70
2018-01-25T21:44:27.056Z,5.70
2018-01-25T21:46:54.690Z,5.23
2018-01-25T21:49:23.036Z,3.90
2018-01-25T21:51:50.737Z,3.23
2018-01-25T21:54:19.049Z,2.90
2018-01-25T21:56:46.636Z,3.73
2018-01-25T21:59:14.185Z,4.30
2018-01-25T22:01:41.869Z,4.73
2018-01-25T22:04:09.412Z,5.20
2018-01-25T22:06:37.070Z,5.20
2018-01-25T22:09:04.683Z,5.07
2018-01-25T22:11:32.356Z,4.87
2018-01-25T22:13:59.926Z,3.57
2018-01-25T22:16:27.543Z,4.73
2018-01-25T22:18:55.118Z,4.13
2018-01-25T22:21:23.411Z,3.50
2018-01-25T22:23:51.032Z,3.20
2018-01-25T22:26:18.563Z,3.70
2018-01-25T22:28:46.087Z,3.47
2018-01-25T22:31:13.650Z,3.87
2018-01-25T22:33:41.182Z,3.73
2018-01-25T22:36:09.386Z,3.83
2018-01-25T22:38:36.844Z,4.40
2018-01-25T22:41:04.283Z,5.43
2018-01-25T22:43:31.922Z,3.90
2018-01-25T22:45:59.351Z,4.03
2018-01-25T22:48:26.859Z,4.30
2018-01-25T22:50:55.070Z,3.27
2018-01-25T22:53:22.639Z,3.00
2018-01-25T22:55:50.125Z,3.47
2018-01-25T22:58:17.560Z,3.00
2018-01-25T23:00:45.006Z,3.03
2018-01-25T23:03:12.455Z,3.40
2018-01-25T23:05:39.900Z,4.17
2018-01-25T23:08:07.338Z,3.70
2018-01-25T23:10:34.781Z,3.93
2018-01-25T23:13:03.010Z,3.53
2018-01-25T23:15:30.788Z,3.97
2018-01-25T23:17:58.227Z,3.80
2018-01-25T23:20:25.668Z,4.33
2018-01-25T23:22:53.121Z,3.83
2018-01-25T23:25:20.558Z,3.93
2018-01-25T23:27:48.002Z,4.23
2018-01-25T23:30:16.200Z,4.30
2018-01-25T23:32:43.640Z,3.00
2018-01-25T23:35:11.086Z,4.20
2018-01-25T23:37:39.303Z,4.07
2018-01-25T23:40:06.741Z,4.40
2018-01-25T23:42:34.191Z,4.40
2018-01-25T23:45:01.620Z,4.70
2018-01-25T23:47:29.065Z,4.57
2018-01-25T23:49:56.500Z,4.13
2018-01-25T23:52:23.954Z,5.13
2018-01-25T23:54:51.385Z,4.60
2018-01-25T23:57:18.820Z,4.70
2018-01-25T23:59:47.021Z,5.23
